createdAt,value
2023-02-03T00:00:06.644Z,8.00
2023-02-03T00:02:33.206Z,19.60
2023-02-03T00:04:59.675Z,14.07
2023-02-03T00:07:26.160Z,15.00
2023-02-03T00:09:52.811Z,18.42
2023-02-03T00:12:19.352Z,18.02
2023-02-03T00:14:45.817Z,13.30
2023-02-03T00:17:12.336Z,14.98
2023-02-03T00:19:38.809Z,12.45
2023-02-03T00:22:05.321Z,12.40
2023-02-03T00:24:31.829Z,9.32
2023-02-03T00:26:58.324Z,19.23
2023-02-03T00:29:26.093Z,10.82
2023-02-03T00:31:54.101Z,13.95
2023-02-03T00:34:20.871Z,10.32
2023-02-03T00:36:48.351Z,11.43
2023-02-03T00:39:15.831Z,13.30
2023-02-03T00:41:42.506Z,13.32
2023-02-03T00:44:09.011Z,15.52
2023-02-03T00:46:38.172Z,14.25
2023-02-03T00:49:04.994Z,14.00
2023-02-03T00:51:32.358Z,8.68
2023-02-03T00:53:58.868Z,12.63
2023-02-03T00:56:25.391Z,11.18
2023-02-03T00:58:51.901Z,18.33
2023-02-03T01:01:18.440Z,10.20
2023-02-03T01:03:45.003Z,18.52
2023-02-03T01:06:15.733Z,9.85
2023-02-03T01:08:42.633Z,9.60
2023-02-03T01:11:11.095Z,11.25
2023-02-03T01:13:37.859Z,6.68
2023-02-03T01:16:07.767Z,10.45
2023-02-03T01:18:34.401Z,6.82
2023-02-03T01:21:09.327Z,15.60
2023-02-03T01:23:36.555Z,15.30
2023-02-03T01:26:05.822Z,17.42
2023-02-03T01:28:32.768Z,7.20
2023-02-03T01:31:11.425Z,9.15
2023-02-03T01:33:40.864Z,12.73
2023-02-03T01:36:10.645Z,9.40
2023-02-03T01:38:38.187Z,16.17
2023-02-03T01:41:07.592Z,10.75
2023-02-03T01:43:41.560Z,11.00
2023-02-03T01:46:35.383Z,4.55
2023-02-03T01:49:18.553Z,8.77
2023-02-03T01:51:45.932Z,10.43
2023-02-03T01:54:23.891Z,7.78
2023-02-03T01:56:59.180Z,17.17
2023-02-03T02:01:54.292Z,11.40
2023-02-03T02:04:22.187Z,7.65
2023-02-03T02:06:48.889Z,10.50
2023-02-03T02:09:16.250Z,10.43
2023-02-03T02:11:42.729Z,13.98
2023-02-03T02:14:09.887Z,14.82
2023-02-03T02:17:02.372Z,14.73
2023-02-03T02:19:53.665Z,7.55
2023-02-03T02:22:26.031Z,14.98
2023-02-03T02:25:10.758Z,9.57
2023-02-03T02:28:08.166Z,10.48
2023-02-03T02:31:00.882Z,10.00
2023-02-03T02:33:36.580Z,9.65
2023-02-03T02:36:25.228Z,11.98
2023-02-03T02:39:09.728Z,13.38
2023-02-03T02:41:42.221Z,10.07
2023-02-03T02:44:11.650Z,6.63
2023-02-03T02:46:50.561Z,7.28
2023-02-03T02:49:25.081Z,7.90
2023-02-03T02:51:53.633Z,11.45
2023-02-03T02:54:23.808Z,8.48
2023-02-03T02:56:55.790Z,11.18
2023-02-03T02:59:22.493Z,9.77
2023-02-03T03:01:49.372Z,11.80
2023-02-03T03:04:22.037Z,6.50
2023-02-03T03:06:53.564Z,8.73
2023-02-03T03:09:26.840Z,4.22
2023-02-03T03:12:01.650Z,8.10
2023-02-03T03:14:31.970Z,9.20
2023-02-03T03:17:02.731Z,7.38
2023-02-03T03:19:34.650Z,6.35
2023-02-03T03:22:04.641Z,11.45
2023-02-03T03:24:41.283Z,5.93
2023-02-03T03:27:20.675Z,8.25
2023-02-03T03:29:53.484Z,6.03
2023-02-03T03:32:20.076Z,6.00
2023-02-03T03:34:47.452Z,8.35
2023-02-03T03:37:23.417Z,6.20
2023-02-03T03:40:00.303Z,10.20
2023-02-03T03:42:26.718Z,10.75
2023-02-03T03:45:10.023Z,11.13
2023-02-03T03:47:39.123Z,8.55
2023-02-03T03:50:09.423Z,5.70
2023-02-03T03:52:37.331Z,5.22
2023-02-03T03:55:08.288Z,6.50
2023-02-03T03:57:47.920Z,6.68
2023-02-03T04:00:19.177Z,6.78
2023-02-03T04:02:51.552Z,4.93
2023-02-03T04:05:18.728Z,7.93
2023-02-03T04:07:47.063Z,3.78
2023-02-03T04:10:32.431Z,3.90
2023-02-03T04:12:59.465Z,3.38
2023-02-03T04:15:26.063Z,7.80
2023-02-03T04:17:52.972Z,4.30
2023-02-03T04:20:19.484Z,5.95
2023-02-03T04:22:46.001Z,4.10
2023-02-03T04:25:12.675Z,6.70
2023-02-03T04:27:39.272Z,4.22
2023-02-03T04:30:06.661Z,5.82
2023-02-03T04:32:35.445Z,5.78
2023-02-03T04:35:03.119Z,4.68
2023-02-03T04:37:29.734Z,5.90
2023-02-03T04:39:56.629Z,4.75
2023-02-03T04:42:24.227Z,5.72
2023-02-03T04:44:51.405Z,3.55
2023-02-03T04:47:18.462Z,4.10
2023-02-03T04:49:45.235Z,3.33
2023-02-03T04:52:12.322Z,4.22
2023-02-03T04:54:39.427Z,3.60
2023-02-03T04:57:06.525Z,4.15
2023-02-03T04:59:33.283Z,3.65
2023-02-03T05:02:02.983Z,3.92
2023-02-03T05:04:29.498Z,4.03
2023-02-03T05:06:57.467Z,5.93
2023-02-03T05:09:24.858Z,3.35
2023-02-03T05:11:51.671Z,4.13
2023-02-03T05:14:18.281Z,3.15
2023-02-03T05:16:46.280Z,5.82
2023-02-03T05:19:12.993Z,4.68
2023-02-03T05:21:39.508Z,3.22
2023-02-03T05:24:07.847Z,3.95
2023-02-03T05:26:35.878Z,2.15
2023-02-03T05:29:03.103Z,2.70
2023-02-03T05:31:29.583Z,1.75
2023-02-03T05:33:56.084Z,2.83
2023-02-03T05:36:22.594Z,2.67
2023-02-03T05:38:49.041Z,2.85
2023-02-03T05:41:33.799Z,2.90
2023-02-03T05:44:00.318Z,4.47
2023-02-03T05:46:26.806Z,3.70
2023-02-03T05:48:53.300Z,3.30
2023-02-03T05:51:19.792Z,4.53
2023-02-03T05:53:46.253Z,3.47
2023-02-03T05:56:12.716Z,2.95
2023-02-03T05:58:39.182Z,3.42
2023-02-03T06:01:05.646Z,4.28
2023-02-03T06:03:32.169Z,3.38
2023-02-03T06:05:58.983Z,3.13
2023-02-03T06:08:28.599Z,3.90
2023-02-03T06:11:04.421Z,3.08
2023-02-03T06:13:31.181Z,2.92
2023-02-03T06:15:57.768Z,3.42
2023-02-03T06:18:24.249Z,2.65
2023-02-03T06:20:51.314Z,3.90
2023-02-03T06:23:19.274Z,2.72
2023-02-03T06:25:48.754Z,3.50
2023-02-03T06:28:15.614Z,3.22
2023-02-03T06:30:42.687Z,2.45
2023-02-03T06:33:09.303Z,1.58
2023-02-03T06:35:35.806Z,2.15
2023-02-03T06:38:02.300Z,2.40
2023-02-03T06:40:29.496Z,2.60
2023-02-03T06:42:56.237Z,2.33
2023-02-03T06:45:24.947Z,2.75
2023-02-03T06:47:51.830Z,2.75
2023-02-03T06:50:18.996Z,3.85
2023-02-03T06:52:45.903Z,4.22
2023-02-03T06:55:12.440Z,4.07
2023-02-03T06:57:46.856Z,2.83
2023-02-03T07:00:18.174Z,5.17
2023-02-03T07:02:45.393Z,3.33
2023-02-03T07:05:11.930Z,3.78
2023-02-03T07:07:39.484Z,4.22
2023-02-03T07:10:07.337Z,4.15
2023-02-03T07:12:33.990Z,2.92
2023-02-03T07:15:00.535Z,4.10
2023-02-03T07:17:27.116Z,2.33
2023-02-03T07:19:53.587Z,4.22
2023-02-03T07:22:20.149Z,3.55
2023-02-03T07:24:46.594Z,2.40
2023-02-03T07:27:13.051Z,1.45
2023-02-03T07:29:39.520Z,2.05
2023-02-03T07:32:06.117Z,2.00
2023-02-03T07:34:32.678Z,4.45
2023-02-03T07:36:59.276Z,5.53
2023-02-03T07:39:25.801Z,3.15
2023-02-03T07:41:52.336Z,1.67
2023-02-03T07:44:18.810Z,2.53
2023-02-03T07:46:45.563Z,2.75
2023-02-03T07:49:13.011Z,3.35
2023-02-03T07:51:39.502Z,2.47
2023-02-03T07:54:06.953Z,3.00
2023-02-03T07:56:33.736Z,2.15
2023-02-03T07:59:00.440Z,2.58
2023-02-03T08:01:27.113Z,3.55
2023-02-03T08:03:55.148Z,3.30
2023-02-03T08:06:22.035Z,2.50
2023-02-03T08:08:48.532Z,2.13
2023-02-03T08:11:15.000Z,1.80
2023-02-03T08:13:41.661Z,2.47
2023-02-03T08:16:08.247Z,3.03
2023-02-03T08:18:34.865Z,2.38
2023-02-03T08:21:03.602Z,3.63
2023-02-03T08:23:30.597Z,2.65
2023-02-03T08:25:57.079Z,3.35
2023-02-03T08:28:23.870Z,4.13
2023-02-03T08:30:50.938Z,3.17
2023-02-03T08:33:17.460Z,3.28
2023-02-03T08:35:47.672Z,2.35
2023-02-03T08:38:14.204Z,3.75
2023-02-03T08:40:40.679Z,2.22
2023-02-03T08:43:07.370Z,4.22
2023-02-03T08:45:33.986Z,1.42
2023-02-03T08:48:00.506Z,2.90
2023-02-03T08:50:27.380Z,3.63
2023-02-03T08:52:54.130Z,3.10
2023-02-03T08:55:20.588Z,3.08
2023-02-03T08:57:47.110Z,2.25
2023-02-03T09:00:14.157Z,3.65
2023-02-03T09:02:40.631Z,1.88
2023-02-03T09:05:07.499Z,3.65
2023-02-03T09:07:34.066Z,4.45
2023-02-03T09:10:00.496Z,2.67
2023-02-03T09:12:26.985Z,4.05
2023-02-03T09:14:56.549Z,4.95
2023-02-03T09:17:23.070Z,3.15
2023-02-03T09:19:49.652Z,5.10
2023-02-03T09:22:16.167Z,2.30
2023-02-03T09:24:43.240Z,3.17
2023-02-03T09:27:09.789Z,4.38
2023-02-03T09:29:36.261Z,4.63
2023-02-03T09:32:07.736Z,4.78
2023-02-03T09:34:34.336Z,5.20
2023-02-03T09:37:00.874Z,3.00
2023-02-03T09:39:27.371Z,2.40
2023-02-03T09:41:56.840Z,4.07
2023-02-03T09:44:37.464Z,2.53
2023-02-03T09:47:12.833Z,4.25
2023-02-03T09:49:53.550Z,3.83
2023-02-03T09:52:23.171Z,4.97
2023-02-03T09:55:16.739Z,3.03
2023-02-03T09:57:51.508Z,3.45
2023-02-03T10:00:26.634Z,2.03
2023-02-03T10:05:53.035Z,1.70
2023-02-03T10:08:55.252Z,4.50
2023-02-03T10:11:38.044Z,2.63
2023-02-03T10:14:22.871Z,1.98
2023-02-03T10:17:04.661Z,4.27
2023-02-03T10:19:43.884Z,2.50
2023-02-03T10:22:18.510Z,4.32
2023-02-03T10:24:48.080Z,4.50
2023-02-03T10:27:21.742Z,3.95
2023-02-03T10:29:58.138Z,2.38
2023-02-03T10:32:26.922Z,3.33
2023-02-03T10:34:53.852Z,2.40
2023-02-03T10:37:46.270Z,2.38
2023-02-03T10:40:16.068Z,4.70
2023-02-03T10:43:03.208Z,5.10
2023-02-03T10:45:34.708Z,3.80
2023-02-03T10:48:01.295Z,2.10
2023-02-03T10:50:31.934Z,3.47
2023-02-03T10:53:18.472Z,2.67
2023-02-03T10:55:48.916Z,2.42
2023-02-03T10:58:22.817Z,3.35
2023-02-03T11:00:56.834Z,4.63
2023-02-03T11:03:28.172Z,5.07
2023-02-03T11:06:05.265Z,4.20
2023-02-03T11:08:33.360Z,3.40
2023-02-03T11:11:06.676Z,4.25
2023-02-03T11:13:33.566Z,3.80
2023-02-03T11:16:06.899Z,2.45
2023-02-03T11:18:57.338Z,4.00
2023-02-03T11:21:39.043Z,3.47
2023-02-03T11:24:32.997Z,4.07
2023-02-03T11:27:16.891Z,3.28
2023-02-03T11:29:49.268Z,4.85
2023-02-03T11:32:28.856Z,2.60
2023-02-03T11:34:59.002Z,4.47
2023-02-03T11:37:37.167Z,3.90
2023-02-03T11:40:06.749Z,4.10
2023-02-03T11:42:38.696Z,5.63
2023-02-03T11:45:29.750Z,3.45
2023-02-03T11:48:15.794Z,4.15
2023-02-03T11:51:02.238Z,3.30
2023-02-03T11:53:56.229Z,5.57
2023-02-03T11:56:29.131Z,6.30
2023-02-03T11:59:21.303Z,5.68
2023-02-03T12:02:09.701Z,3.70
2023-02-03T12:04:58.206Z,5.15
2023-02-03T12:07:54.169Z,5.15
2023-02-03T12:10:32.771Z,2.75
2023-02-03T12:13:19.504Z,2.03
2023-02-03T12:15:52.036Z,4.70
2023-02-03T12:18:44.646Z,5.95
2023-02-03T12:21:29.558Z,2.78
2023-02-03T12:24:39.107Z,3.92
2023-02-03T12:27:33.782Z,4.32
2023-02-03T12:30:07.152Z,3.55
2023-02-03T12:32:46.696Z,4.30
2023-02-03T12:35:35.036Z,2.97
2023-02-03T12:38:17.525Z,4.18
2023-02-03T12:40:44.041Z,2.08
2023-02-03T12:43:20.892Z,3.80
2023-02-03T12:46:07.739Z,2.42
2023-02-03T12:48:47.518Z,3.28
2023-02-03T12:51:23.197Z,3.35
2023-02-03T12:53:57.073Z,4.00
2023-02-03T12:56:30.270Z,3.65
2023-02-03T12:59:13.959Z,3.15
2023-02-03T13:01:50.332Z,2.10
2023-02-03T13:04:44.829Z,4.03
2023-02-03T13:07:30.199Z,2.45
2023-02-03T13:10:22.725Z,3.22
2023-02-03T13:12:56.596Z,2.65
2023-02-03T13:15:40.707Z,3.83
2023-02-03T13:18:19.092Z,3.08
2023-02-03T13:20:45.811Z,3.45
2023-02-03T13:23:15.798Z,2.92
2023-02-03T13:26:00.287Z,3.88
2023-02-03T13:28:53.395Z,4.35
2023-02-03T13:31:47.461Z,1.85
2023-02-03T13:34:42.061Z,1.90
2023-02-03T13:37:11.302Z,3.15
2023-02-03T13:39:43.799Z,2.05
2023-02-03T13:42:19.056Z,1.77
2023-02-03T13:47:24.728Z,2.58
2023-02-03T13:49:56.892Z,3.30
2023-02-03T13:52:36.099Z,2.42
2023-02-03T13:55:03.520Z,4.28
2023-02-03T13:57:35.164Z,3.58
2023-02-03T14:00:04.764Z,2.95
2023-02-03T14:02:42.941Z,2.45
2023-02-03T14:05:43.209Z,2.58
2023-02-03T14:08:27.934Z,3.40
2023-02-03T14:11:38.422Z,4.80
2023-02-03T14:14:07.739Z,2.78
2023-02-03T14:16:39.313Z,3.17
2023-02-03T14:19:09.729Z,3.83
2023-02-03T14:21:54.190Z,4.53
2023-02-03T14:24:22.193Z,4.03
2023-02-03T14:26:54.298Z,4.53
2023-02-03T14:29:38.981Z,3.35
2023-02-03T14:32:10.477Z,3.95
2023-02-03T14:34:39.604Z,3.10
2023-02-03T14:37:23.152Z,4.20
2023-02-03T14:40:02.068Z,3.80
2023-02-03T14:43:08.571Z,2.38
2023-02-03T14:45:54.952Z,2.63
2023-02-03T14:48:30.750Z,4.70
2023-02-03T14:51:12.405Z,3.35
2023-02-03T14:54:08.732Z,3.90
2023-02-03T14:57:16.616Z,3.88
2023-02-03T14:59:47.744Z,3.90
2023-02-03T15:02:17.267Z,3.80
2023-02-03T15:04:45.733Z,3.45
2023-02-03T15:07:37.340Z,2.42
2023-02-03T15:10:11.915Z,3.22
2023-02-03T15:12:38.457Z,4.03
2023-02-03T15:15:28.671Z,4.68
2023-02-03T15:17:59.513Z,3.78
2023-02-03T15:20:46.248Z,4.03
2023-02-03T15:23:27.748Z,3.28
2023-02-03T15:26:12.918Z,3.90
2023-02-03T15:28:39.874Z,4.57
2023-02-03T15:31:21.371Z,3.58
2023-02-03T15:33:50.109Z,2.53
2023-02-03T15:36:24.710Z,3.30
2023-02-03T15:39:33.941Z,3.60
2023-02-03T15:42:02.487Z,4.38
2023-02-03T15:44:55.094Z,2.33
2023-02-03T15:47:32.375Z,2.40
2023-02-03T15:50:16.262Z,3.20
2023-02-03T15:52:45.635Z,3.08
2023-02-03T15:55:29.011Z,3.15
2023-02-03T15:57:55.732Z,4.00
2023-02-03T16:00:36.375Z,3.30
2023-02-03T16:03:06.635Z,4.78
2023-02-03T16:05:37.017Z,5.18
2023-02-03T16:08:36.520Z,3.95
2023-02-03T16:11:21.662Z,3.90
2023-02-03T16:13:48.161Z,2.13
2023-02-03T16:16:22.551Z,4.00
2023-02-03T16:18:55.955Z,6.17
2023-02-03T16:21:27.669Z,1.98
2023-02-03T16:23:54.169Z,4.18
2023-02-03T16:26:23.567Z,0.70
2023-02-03T16:29:35.102Z,3.67
2023-02-03T16:32:20.482Z,5.43
2023-02-03T16:35:05.838Z,4.57
2023-02-03T16:37:53.671Z,3.90
2023-02-03T16:40:41.024Z,4.82
2023-02-03T16:43:35.178Z,2.22
2023-02-03T16:46:20.658Z,4.13
2023-02-03T16:49:06.275Z,3.90
2023-02-03T16:51:40.044Z,4.60
2023-02-03T16:54:11.008Z,3.28
2023-02-03T16:56:37.619Z,4.13
2023-02-03T16:59:04.125Z,5.80
2023-02-03T17:01:30.653Z,4.05
2023-02-03T17:03:57.195Z,1.75
2023-02-03T17:06:23.715Z,1.50
2023-02-03T17:08:50.759Z,4.20
2023-02-03T17:11:23.255Z,2.78
2023-02-03T17:13:50.656Z,5.35
2023-02-03T17:16:22.996Z,4.95
2023-02-03T17:18:49.801Z,3.38
2023-02-03T17:21:34.458Z,4.30
2023-02-03T17:24:01.039Z,4.15
2023-02-03T17:26:27.664Z,2.58
2023-02-03T17:28:54.193Z,4.88
2023-02-03T17:31:21.136Z,2.65
2023-02-03T17:33:51.598Z,4.10
2023-02-03T17:36:19.959Z,3.78
2023-02-03T17:55:23.345Z,4.95
2023-02-03T17:57:49.796Z,3.70
2023-02-03T18:00:16.517Z,4.18
2023-02-03T18:02:43.413Z,3.85
2023-02-03T18:05:10.538Z,4.32
2023-02-03T18:07:36.978Z,4.10
2023-02-03T18:10:03.981Z,4.00
2023-02-03T18:12:30.526Z,4.20
2023-02-03T18:14:57.774Z,4.45
2023-02-03T18:17:24.414Z,4.75
2023-02-03T18:19:55.694Z,4.78
2023-02-03T18:22:23.047Z,4.82
2023-02-03T18:24:52.614Z,5.32
2023-02-03T18:27:19.501Z,4.22
2023-02-03T18:29:47.343Z,5.35
2023-02-03T18:32:15.060Z,5.50
2023-02-03T18:34:42.004Z,3.05
2023-02-03T18:37:08.734Z,2.45
2023-02-03T18:39:35.493Z,6.43
2023-02-03T18:42:02.028Z,4.60
2023-02-03T18:44:28.573Z,4.97
2023-02-03T18:46:55.206Z,4.78
2023-02-03T18:49:21.835Z,4.20
2023-02-03T18:51:48.333Z,3.20
2023-02-03T18:54:14.799Z,5.25
2023-02-03T18:56:41.294Z,3.95
2023-02-03T18:59:14.037Z,2.55
2023-02-03T19:01:40.746Z,3.97
2023-02-03T19:04:07.455Z,3.80
2023-02-03T19:06:35.799Z,5.07
2023-02-03T19:09:03.535Z,6.07
2023-02-03T19:11:30.179Z,4.15
2023-02-03T19:13:56.676Z,5.20
2023-02-03T19:16:23.136Z,5.18
2023-02-03T19:18:49.656Z,2.85
2023-02-03T19:21:17.362Z,4.78
2023-02-03T19:23:43.901Z,3.08
2023-02-03T19:26:12.149Z,6.15
2023-02-03T19:28:39.642Z,5.25
2023-02-03T19:31:08.976Z,4.75
2023-02-03T19:33:36.651Z,4.30
2023-02-03T19:36:04.581Z,5.07
2023-02-03T19:38:31.184Z,3.78
2023-02-03T19:40:57.736Z,4.93
2023-02-03T19:43:27.235Z,2.67
2023-02-03T19:45:53.777Z,5.57
2023-02-03T19:48:20.251Z,3.80
2023-02-03T19:50:48.254Z,5.22
2023-02-03T19:53:17.253Z,4.03
2023-02-03T19:55:44.590Z,5.65
2023-02-03T19:58:12.430Z,4.82
2023-02-03T20:00:39.236Z,4.72
2023-02-03T20:03:05.826Z,2.70
2023-02-03T20:05:32.387Z,3.75
2023-02-03T20:07:58.830Z,5.40
2023-02-03T20:10:28.864Z,1.40
2023-02-03T20:12:55.675Z,3.85
2023-02-03T20:15:22.230Z,3.60
2023-02-03T20:17:48.788Z,5.50
2023-02-03T20:20:18.163Z,2.60
2023-02-03T20:22:46.235Z,3.10
2023-02-03T20:25:12.762Z,4.78
2023-02-03T20:27:39.328Z,4.78
2023-02-03T20:30:06.377Z,4.05
2023-02-03T20:32:32.858Z,4.32
2023-02-03T20:34:59.974Z,3.33
2023-02-03T20:37:26.491Z,3.30
2023-02-03T20:39:53.017Z,5.32
2023-02-03T20:42:19.670Z,5.60
2023-02-03T20:44:46.277Z,3.85
2023-02-03T20:47:15.210Z,4.68
2023-02-03T20:49:42.732Z,4.30
2023-02-03T20:52:18.146Z,3.92
2023-02-03T20:54:44.824Z,3.88
2023-02-03T20:57:20.636Z,2.47
2023-02-03T20:59:47.126Z,4.38
2023-02-03T21:02:22.646Z,3.75
2023-02-03T21:04:57.877Z,3.55
2023-02-03T21:09:54.408Z,4.82
2023-02-03T21:12:21.155Z,4.03
2023-02-03T21:14:49.004Z,4.30
2023-02-03T21:17:27.169Z,4.35
2023-02-03T21:19:55.013Z,4.85
2023-02-03T21:22:26.854Z,5.13
2023-02-03T21:24:56.520Z,4.18
2023-02-03T21:27:27.416Z,3.60
2023-02-03T21:29:57.128Z,3.97
2023-02-03T21:32:26.176Z,3.95
2023-02-03T21:34:52.883Z,4.38
2023-02-03T21:37:41.368Z,3.78
2023-02-03T21:40:25.845Z,3.42
2023-02-03T21:42:53.400Z,4.53
2023-02-03T21:45:19.828Z,4.18
2023-02-03T21:47:48.916Z,4.45
2023-02-03T21:50:35.886Z,3.25
2023-02-03T21:53:05.453Z,3.17
2023-02-03T21:55:31.900Z,3.90
2023-02-03T21:57:58.505Z,3.78
2023-02-03T22:00:43.181Z,4.28
2023-02-03T22:03:20.256Z,5.20
2023-02-03T22:05:47.444Z,3.58
2023-02-03T22:08:18.527Z,3.55
2023-02-03T22:10:45.189Z,4.40
2023-02-03T22:13:13.080Z,4.68
2023-02-03T22:15:40.619Z,4.80
2023-02-03T22:18:07.370Z,4.65
2023-02-03T22:20:34.001Z,4.72
2023-02-03T22:23:00.568Z,5.47
2023-02-03T22:25:27.167Z,5.13
2023-02-03T22:27:53.670Z,3.90
2023-02-03T22:30:20.225Z,4.95
2023-02-03T22:32:46.708Z,4.50
2023-02-03T22:35:13.196Z,4.90
2023-02-03T22:37:39.660Z,4.63
2023-02-03T22:40:06.482Z,4.53
2023-02-03T22:42:32.961Z,3.05
2023-02-03T22:44:59.456Z,4.38
2023-02-03T22:47:26.348Z,4.32
2023-02-03T22:49:52.877Z,4.40
2023-02-03T22:52:19.385Z,4.20
2023-02-03T22:54:45.925Z,4.53
2023-02-03T22:57:12.377Z,4.38
2023-02-03T22:59:38.880Z,3.67
2023-02-03T23:02:05.329Z,3.72
2023-02-03T23:04:31.977Z,4.05
2023-02-03T23:06:58.503Z,4.15
2023-02-03T23:09:25.014Z,5.10
2023-02-03T23:11:51.568Z,5.28
2023-02-03T23:14:18.102Z,4.72
2023-02-03T23:16:44.622Z,4.82
2023-02-03T23:19:11.105Z,5.22
2023-02-03T23:21:37.690Z,6.63
2023-02-03T23:24:04.444Z,5.38
2023-02-03T23:26:30.943Z,5.20
2023-02-03T23:28:57.390Z,5.72
2023-02-03T23:31:23.933Z,4.70
2023-02-03T23:34:09.067Z,5.10
2023-02-03T23:36:35.560Z,4.85
2023-02-03T23:39:02.106Z,4.45
2023-02-03T23:41:28.606Z,5.20
2023-02-03T23:43:55.112Z,4.63
2023-02-03T23:46:21.595Z,4.93
2023-02-03T23:48:48.203Z,5.15
2023-02-03T23:51:14.945Z,5.05
2023-02-03T23:53:41.401Z,4.68
2023-02-03T23:56:07.881Z,4.72
2023-02-03T23:58:34.348Z,5.10
